createdAt,value
2023-03-04T00:02:14.479Z,47.60
2023-03-04T00:05:16.609Z,44.95
2023-03-04T00:08:18.691Z,50.00
2023-03-04T00:11:21.012Z,41.75
2023-03-04T00:14:23.117Z,47.17
2023-03-04T00:17:25.820Z,43.50
2023-03-04T00:20:30.251Z,44.53
2023-03-04T00:23:32.563Z,44.08
2023-03-04T00:26:34.568Z,49.00
2023-03-04T00:29:36.717Z,43.80
2023-03-04T00:32:38.957Z,49.10
2023-03-04T00:35:42.475Z,43.75
2023-03-04T00:38:44.486Z,39.80
2023-03-04T00:41:46.530Z,46.92
2023-03-04T00:44:54.107Z,46.20
2023-03-04T00:47:58.691Z,49.63
2023-03-04T00:51:00.726Z,48.22
2023-03-04T00:54:02.863Z,36.10
2023-03-04T00:57:05.032Z,39.40
2023-03-04T01:00:07.724Z,51.67
2023-03-04T01:03:10.351Z,39.33
2023-03-04T01:06:13.283Z,40.25
2023-03-04T01:09:15.516Z,43.28
2023-03-04T01:12:17.531Z,41.33
2023-03-04T01:15:19.672Z,40.17
2023-03-04T01:18:22.900Z,46.10
2023-03-04T01:21:25.301Z,43.60
2023-03-04T01:24:28.004Z,45.88
2023-03-04T01:27:30.196Z,45.45
2023-03-04T01:30:32.263Z,49.55
2023-03-04T01:33:34.694Z,42.47
2023-03-04T01:36:36.929Z,44.90
2023-03-04T01:39:38.875Z,48.83
2023-03-04T01:42:41.412Z,48.47
2023-03-04T01:45:43.687Z,54.33
2023-03-04T01:48:46.828Z,48.15
2023-03-04T01:51:54.327Z,46.85
2023-03-04T01:54:57.673Z,45.97
2023-03-04T01:57:59.754Z,46.78
2023-03-04T02:01:01.858Z,48.15
2023-03-04T02:04:04.398Z,40.88
2023-03-04T02:07:07.528Z,48.67
2023-03-04T02:10:11.078Z,47.20
2023-03-04T02:13:14.727Z,49.50
2023-03-04T02:16:16.717Z,49.60
2023-03-04T02:19:53.916Z,49.92
2023-03-04T02:23:11.926Z,47.20
2023-03-04T02:26:19.426Z,43.75
2023-03-04T02:29:24.588Z,46.50
2023-03-04T02:32:26.802Z,50.67
2023-03-04T02:35:29.371Z,48.53
2023-03-04T02:38:31.633Z,48.10
2023-03-04T02:41:34.669Z,42.45
2023-03-04T02:44:39.940Z,45.00
2023-03-04T02:47:41.954Z,46.03
2023-03-04T02:50:49.385Z,49.53
2023-03-04T02:53:51.377Z,46.90
2023-03-04T02:56:55.915Z,46.20
2023-03-04T02:59:59.299Z,45.50
2023-03-04T03:03:03.798Z,51.17
2023-03-04T03:06:06.311Z,48.47
2023-03-04T03:09:08.340Z,49.70
2023-03-04T03:12:10.411Z,45.13
2023-03-04T03:15:13.544Z,46.58
2023-03-04T03:18:15.816Z,45.35
2023-03-04T03:21:17.890Z,53.17
2023-03-04T03:24:20.877Z,47.97
2023-03-04T03:27:22.935Z,45.67
2023-03-04T03:30:26.443Z,47.85
2023-03-04T03:33:28.519Z,49.78
2023-03-04T03:36:30.728Z,51.88
2023-03-04T03:39:32.813Z,45.65
2023-03-04T03:42:34.851Z,42.67
2023-03-04T03:45:37.307Z,44.80
2023-03-04T03:48:39.470Z,51.45
2023-03-04T03:51:41.501Z,49.75
2023-03-04T03:54:43.602Z,47.40
2023-03-04T03:57:45.665Z,43.55
2023-03-04T04:00:48.054Z,44.83
2023-03-04T04:03:50.490Z,52.50
2023-03-04T04:06:52.502Z,50.50
2023-03-04T04:09:54.587Z,49.80
2023-03-04T04:12:56.671Z,46.60
2023-03-04T04:16:23.766Z,46.95
2023-03-04T04:19:25.917Z,47.40
2023-03-04T04:22:27.981Z,48.00
2023-03-04T04:25:30.452Z,48.30
2023-03-04T04:28:33.296Z,44.92
2023-03-04T04:31:36.402Z,45.45
2023-03-04T04:34:38.540Z,48.83
2023-03-04T04:37:41.879Z,44.83
2023-03-04T04:40:46.118Z,47.58
2023-03-04T04:43:48.481Z,50.95
2023-03-04T04:46:51.712Z,43.70
2023-03-04T04:49:53.742Z,47.22
2023-03-04T04:52:55.753Z,41.30
2023-03-04T04:55:57.991Z,43.00
2023-03-04T04:59:03.734Z,43.35
2023-03-04T05:02:06.060Z,41.70
2023-03-04T05:05:08.477Z,44.63
2023-03-04T05:08:10.488Z,44.75
2023-03-04T05:11:12.505Z,40.63
2023-03-04T05:14:14.756Z,41.15
2023-03-04T05:17:17.163Z,45.88
2023-03-04T05:20:19.294Z,52.08
2023-03-04T05:23:21.360Z,48.42
2023-03-04T05:26:23.497Z,49.05
2023-03-04T05:29:25.386Z,48.65
2023-03-04T05:32:28.147Z,47.40
2023-03-04T05:35:30.605Z,57.10
2023-03-04T05:38:32.849Z,46.90
2023-03-04T05:41:35.023Z,43.33
2023-03-04T05:44:37.054Z,60.38
2023-03-04T05:47:39.975Z,60.88
2023-03-04T05:50:41.983Z,56.65
2023-03-04T05:53:44.085Z,53.53
2023-03-04T05:56:46.105Z,60.00
2023-03-04T05:59:48.056Z,61.20
2023-03-04T06:02:50.462Z,82.68
2023-03-04T06:05:53.763Z,85.15
2023-03-04T06:08:56.054Z,73.43
2023-03-04T06:11:58.028Z,54.95
2023-03-04T06:15:00.129Z,53.90
2023-03-04T06:18:02.376Z,45.45
2023-03-04T06:21:04.608Z,59.40
2023-03-04T06:24:06.860Z,60.83
2023-03-04T06:27:08.975Z,89.55
2023-03-04T06:30:11.732Z,50.85
2023-03-04T06:33:14.980Z,39.67
2023-03-04T06:36:16.980Z,54.63
2023-03-04T06:39:19.062Z,47.15
2023-03-04T06:42:20.970Z,48.78
2023-03-04T06:45:23.012Z,50.80
2023-03-04T06:48:25.060Z,52.78
2023-03-04T06:51:27.126Z,44.63
2023-03-04T06:54:30.288Z,42.25
2023-03-04T06:57:33.019Z,47.30
2023-03-04T07:00:35.219Z,44.60
2023-03-04T07:03:37.608Z,33.92
2023-03-04T07:06:39.701Z,48.17
2023-03-04T07:09:41.854Z,43.80
2023-03-04T07:12:44.146Z,52.38
2023-03-04T07:15:46.674Z,72.80
2023-03-04T07:18:49.244Z,50.97
2023-03-04T07:21:51.484Z,50.78
2023-03-04T07:24:53.507Z,43.17
2023-03-04T07:31:48.852Z,35.40
2023-03-04T07:34:51.725Z,41.83
2023-03-04T07:37:53.794Z,33.33
2023-03-04T07:40:57.632Z,34.75
2023-03-04T07:43:59.638Z,33.15
2023-03-04T07:47:01.611Z,31.05
2023-03-04T07:50:03.920Z,39.22
2023-03-04T07:53:05.899Z,35.92
2023-03-04T07:56:11.920Z,37.05
2023-03-04T07:59:14.103Z,29.10
2023-03-04T08:02:16.102Z,34.13
2023-03-04T08:05:18.427Z,37.15
2023-03-04T08:08:20.530Z,35.55
2023-03-04T08:11:22.679Z,41.22
2023-03-04T08:14:36.968Z,40.13
2023-03-04T08:17:43.350Z,35.58
2023-03-04T08:20:45.428Z,38.35
2023-03-04T08:23:50.875Z,31.55
2023-03-04T08:26:53.022Z,26.52
2023-03-04T08:29:55.106Z,24.17
2023-03-04T08:32:57.422Z,24.30
2023-03-04T08:35:59.795Z,26.63
2023-03-04T08:39:01.962Z,42.53
2023-03-04T08:42:04.113Z,24.75
2023-03-04T08:45:06.478Z,27.17
2023-03-04T08:48:08.448Z,25.08
2023-03-04T08:51:12.744Z,24.83
2023-03-04T08:54:15.576Z,22.35
2023-03-04T08:57:17.639Z,21.40
2023-03-04T09:00:21.262Z,27.33
2023-03-04T09:03:23.199Z,21.85
2023-03-04T09:06:25.172Z,25.77
2023-03-04T09:09:27.252Z,27.63
2023-03-04T09:12:29.140Z,25.95
2023-03-04T09:15:31.169Z,25.88
2023-03-04T09:18:33.156Z,28.13
2023-03-04T09:21:35.172Z,27.02
2023-03-04T09:24:45.256Z,22.52
2023-03-04T09:27:47.692Z,26.48
2023-03-04T09:30:49.735Z,29.75
2023-03-04T09:34:00.768Z,29.13
2023-03-04T09:37:03.144Z,23.13
2023-03-04T09:40:08.276Z,28.25
2023-03-04T09:43:21.581Z,26.80
2023-03-04T09:46:45.538Z,27.83
2023-03-04T09:50:17.511Z,19.52
2023-03-04T09:53:26.319Z,21.77
2023-03-04T09:56:28.637Z,23.67
2023-03-04T09:59:41.472Z,18.67
2023-03-04T10:02:52.579Z,19.92
2023-03-04T10:05:59.131Z,19.10
2023-03-04T10:09:46.753Z,19.58
2023-03-04T10:12:51.309Z,19.65
2023-03-04T10:15:54.455Z,23.20
2023-03-04T10:18:58.408Z,20.05
2023-03-04T10:22:00.609Z,25.02
2023-03-04T10:25:16.223Z,21.55
2023-03-04T10:28:20.258Z,19.98
2023-03-04T10:31:33.271Z,19.65
2023-03-04T10:34:35.254Z,20.50
2023-03-04T10:37:46.159Z,26.13
2023-03-04T10:40:48.198Z,19.85
2023-03-04T10:44:11.560Z,18.42
2023-03-04T10:47:17.006Z,20.10
2023-03-04T10:50:28.155Z,21.67
2023-03-04T10:53:37.266Z,18.60
2023-03-04T10:56:45.578Z,23.30
2023-03-04T10:59:57.142Z,16.30
2023-03-04T11:03:35.877Z,16.58
2023-03-04T11:06:41.728Z,21.05
2023-03-04T11:09:44.973Z,31.08
2023-03-04T11:13:01.035Z,16.45
2023-03-04T11:16:06.243Z,22.38
2023-03-04T11:19:16.544Z,19.30
2023-03-04T11:22:29.387Z,15.93
2023-03-04T11:25:36.010Z,21.75
2023-03-04T11:28:43.994Z,18.65
2023-03-04T11:31:48.831Z,18.10
2023-03-04T11:35:01.447Z,16.17
2023-03-04T11:38:15.722Z,25.25
2023-03-04T11:41:25.816Z,16.08
2023-03-04T11:44:27.797Z,22.10
2023-03-04T11:47:44.136Z,17.15
2023-03-04T11:50:53.977Z,15.02
2023-03-04T11:53:56.157Z,15.75
2023-03-04T11:57:07.009Z,13.35
2023-03-04T12:00:36.166Z,15.48
2023-03-04T12:03:50.703Z,16.55
2023-03-04T12:07:26.442Z,17.17
2023-03-04T12:10:31.524Z,17.10
2023-03-04T12:13:43.576Z,10.90
2023-03-04T12:17:12.957Z,14.90
2023-03-04T12:20:19.819Z,20.50
2023-03-04T12:24:05.328Z,15.73
2023-03-04T12:27:12.960Z,20.23
2023-03-04T12:30:50.078Z,12.25
2023-03-04T12:34:10.231Z,10.77
2023-03-04T12:37:15.763Z,16.23
2023-03-04T12:40:23.874Z,14.65
2023-03-04T12:43:47.821Z,11.55
2023-03-04T12:47:20.344Z,17.40
2023-03-04T12:50:37.111Z,14.98
2023-03-04T12:53:47.749Z,14.95
2023-03-04T12:56:52.727Z,11.82
2023-03-04T13:00:23.469Z,10.90
2023-03-04T13:03:28.214Z,16.02
2023-03-04T13:06:58.521Z,14.18
2023-03-04T13:10:11.495Z,12.70
2023-03-04T13:13:41.419Z,15.30
2023-03-04T13:16:49.953Z,8.88
2023-03-04T13:23:01.961Z,8.48
2023-03-04T13:26:03.823Z,8.50
2023-03-04T13:29:34.362Z,15.23
2023-03-04T13:32:38.674Z,12.85
2023-03-04T13:35:47.182Z,12.55
2023-03-04T13:39:00.686Z,14.05
2023-03-04T13:42:03.656Z,13.18
2023-03-04T13:45:25.817Z,13.60
2023-03-04T13:48:36.465Z,13.75
2023-03-04T13:51:43.147Z,15.95
2023-03-04T13:54:45.229Z,20.42
2023-03-04T13:57:51.360Z,15.13
2023-03-04T14:00:55.721Z,9.00
2023-03-04T14:03:59.840Z,10.20
2023-03-04T14:07:18.345Z,18.73
2023-03-04T14:10:24.824Z,17.75
2023-03-04T14:13:27.786Z,13.60
2023-03-04T14:16:35.935Z,14.80
2023-03-04T14:19:46.278Z,16.88
2023-03-04T14:22:48.221Z,16.55
2023-03-04T14:25:50.388Z,11.15
2023-03-04T14:28:57.463Z,14.52
2023-03-04T14:32:00.409Z,22.83
2023-03-04T14:35:06.579Z,12.05
2023-03-04T14:38:25.134Z,18.17
2023-03-04T14:41:34.328Z,16.70
2023-03-04T14:44:48.780Z,14.52
2023-03-04T14:47:54.922Z,16.17
2023-03-04T14:50:58.578Z,18.02
2023-03-04T14:54:00.632Z,16.83
2023-03-04T14:57:26.127Z,10.05
2023-03-04T15:00:30.918Z,14.60
2023-03-04T15:03:34.500Z,16.42
2023-03-04T15:06:49.096Z,12.85
2023-03-04T15:09:55.819Z,11.32
2023-03-04T15:13:01.608Z,12.02
2023-03-04T15:16:03.933Z,8.82
2023-03-04T15:19:25.616Z,12.70
2023-03-04T15:22:27.837Z,12.55
2023-03-04T15:25:30.711Z,14.75
2023-03-04T15:28:37.470Z,16.52
2023-03-04T15:31:39.491Z,14.38
2023-03-04T15:34:41.445Z,11.63
2023-03-04T15:37:44.891Z,8.25
2023-03-04T15:40:47.170Z,12.88
2023-03-04T15:43:51.140Z,11.40
2023-03-04T15:46:53.138Z,12.68
2023-03-04T15:49:55.141Z,17.45
2023-03-04T15:53:00.258Z,17.40
2023-03-04T15:56:03.943Z,16.83
2023-03-04T15:59:17.087Z,15.93
2023-03-04T16:02:24.717Z,26.60
2023-03-04T16:05:26.903Z,15.17
2023-03-04T16:08:31.034Z,22.42
2023-03-04T16:11:46.535Z,15.85
2023-03-04T16:14:49.382Z,21.13
2023-03-04T16:17:54.648Z,14.60
2023-03-04T16:20:57.097Z,13.27
2023-03-04T16:23:59.522Z,16.00
2023-03-04T16:27:01.592Z,14.07
2023-03-04T16:30:04.678Z,18.08
2023-03-04T16:33:07.627Z,14.77
2023-03-04T16:36:18.937Z,21.30
2023-03-04T16:39:24.392Z,13.32
2023-03-04T16:42:27.334Z,21.02
2023-03-04T16:45:30.979Z,19.63
2023-03-04T16:48:33.019Z,19.27
2023-03-04T16:51:40.444Z,15.32
2023-03-04T16:54:42.490Z,23.35
2023-03-04T16:57:44.669Z,18.95
2023-03-04T17:00:46.943Z,12.43
2023-03-04T17:03:49.004Z,13.50
2023-03-04T17:06:53.112Z,20.98
2023-03-04T17:09:55.288Z,14.77
2023-03-04T17:12:57.798Z,16.80
2023-03-04T17:16:08.908Z,17.67
2023-03-04T17:19:13.641Z,20.02
2023-03-04T17:22:21.603Z,22.83
2023-03-04T17:25:26.584Z,23.08
2023-03-04T17:28:29.639Z,23.98
2023-03-04T17:31:36.721Z,26.85
2023-03-04T17:34:43.413Z,17.80
2023-03-04T17:37:45.440Z,22.50
2023-03-04T17:40:48.227Z,18.90
2023-03-04T17:43:55.312Z,23.40
2023-03-04T17:46:58.299Z,22.20
2023-03-04T17:50:06.746Z,18.52
2023-03-04T17:56:12.826Z,24.95
2023-03-04T17:59:16.915Z,19.20
2023-03-04T18:02:30.739Z,18.42
2023-03-04T18:05:33.586Z,23.35
2023-03-04T18:08:42.949Z,26.63
2023-03-04T18:11:45.935Z,23.08
2023-03-04T18:14:48.297Z,24.33
2023-03-04T18:17:50.449Z,20.75
2023-03-04T18:21:03.202Z,23.65
2023-03-04T18:24:05.755Z,25.63
2023-03-04T18:27:10.419Z,17.17
2023-03-04T18:30:27.300Z,23.13
2023-03-04T18:33:37.127Z,22.55
2023-03-04T18:36:40.187Z,26.05
2023-03-04T18:39:42.322Z,30.38
2023-03-04T18:42:48.729Z,25.25
2023-03-04T18:46:12.648Z,25.20
2023-03-04T18:49:16.429Z,30.67
2023-03-04T18:52:20.128Z,25.45
2023-03-04T18:55:34.313Z,33.63
2023-03-04T18:58:40.237Z,29.63
2023-03-04T19:02:02.656Z,22.13
2023-03-04T19:05:28.692Z,35.00
2023-03-04T19:08:31.099Z,33.72
2023-03-04T19:11:34.353Z,30.58
2023-03-04T19:14:36.419Z,32.28
2023-03-04T19:17:39.353Z,28.45
2023-03-04T19:20:42.912Z,30.10
2023-03-04T19:23:44.829Z,35.33
2023-03-04T19:26:46.907Z,32.33
2023-03-04T19:29:49.383Z,35.65
2023-03-04T19:32:51.502Z,35.55
2023-03-04T19:35:53.709Z,40.90
2023-03-04T19:38:55.796Z,33.55
2023-03-04T19:41:57.993Z,33.33
2023-03-04T19:45:01.986Z,33.78
2023-03-04T19:48:04.393Z,29.75
2023-03-04T19:51:19.964Z,26.55
2023-03-04T19:54:22.089Z,30.73
2023-03-04T19:57:28.217Z,35.08
2023-03-04T20:00:30.350Z,22.92
2023-03-04T20:03:33.053Z,28.75
2023-03-04T20:06:40.186Z,34.40
2023-03-04T20:09:42.486Z,38.70
2023-03-04T20:12:44.714Z,36.15
2023-03-04T20:15:46.809Z,37.67
2023-03-04T20:18:50.547Z,31.58
2023-03-04T20:21:52.789Z,35.45
2023-03-04T20:24:55.663Z,36.28
2023-03-04T20:27:58.916Z,35.60
2023-03-04T20:31:27.253Z,30.63
2023-03-04T20:34:29.359Z,43.72
2023-03-04T20:37:31.834Z,46.10
2023-03-04T20:40:36.016Z,37.83
2023-03-04T20:43:38.713Z,42.08
2023-03-04T20:46:46.303Z,32.70
2023-03-04T20:49:48.865Z,39.28
2023-03-04T20:52:53.762Z,50.63
2023-03-04T20:55:55.833Z,28.65
2023-03-04T20:59:00.433Z,28.67
2023-03-04T21:02:02.617Z,24.27
2023-03-04T21:05:05.025Z,26.42
2023-03-04T21:08:07.044Z,29.00
2023-03-04T21:11:16.108Z,29.00
2023-03-04T21:14:24.438Z,36.58
2023-03-04T21:17:26.463Z,27.33
2023-03-04T21:20:28.521Z,27.70
2023-03-04T21:23:30.627Z,27.23
2023-03-04T21:26:34.976Z,29.33
2023-03-04T21:29:37.889Z,31.15
2023-03-04T21:32:40.260Z,35.67
2023-03-04T21:35:42.416Z,35.88
2023-03-04T21:38:45.677Z,36.53
2023-03-04T21:41:48.273Z,42.05
2023-03-04T21:44:51.611Z,32.80
2023-03-04T21:47:53.929Z,43.00
2023-03-04T21:51:04.709Z,34.40
2023-03-04T21:54:07.998Z,32.33
2023-03-04T21:57:10.065Z,34.80
2023-03-04T22:00:14.532Z,42.45
2023-03-04T22:03:16.716Z,42.67
2023-03-04T22:06:22.745Z,41.08
2023-03-04T22:09:25.952Z,37.47
2023-03-04T22:12:28.231Z,38.72
2023-03-04T22:15:30.180Z,45.25
2023-03-04T22:18:32.865Z,49.47
2023-03-04T22:21:34.930Z,39.88
2023-03-04T22:24:36.977Z,52.78
2023-03-04T22:27:39.060Z,46.33
2023-03-04T22:30:41.245Z,44.13
2023-03-04T22:33:43.941Z,45.15
2023-03-04T22:36:47.370Z,47.60
2023-03-04T22:39:49.404Z,50.28
2023-03-04T22:42:52.507Z,52.50
2023-03-04T22:45:54.596Z,43.03
2023-03-04T22:48:59.858Z,45.42
2023-03-04T22:52:01.903Z,47.42
2023-03-04T22:55:05.591Z,53.17
2023-03-04T22:58:07.909Z,52.75
2023-03-04T23:01:10.530Z,49.63
2023-03-04T23:04:12.654Z,54.47
2023-03-04T23:07:14.723Z,51.15
2023-03-04T23:10:24.872Z,50.22
2023-03-04T23:13:27.260Z,51.90
2023-03-04T23:16:29.400Z,51.30
2023-03-04T23:19:31.491Z,49.95
2023-03-04T23:22:34.096Z,46.72
2023-03-04T23:25:37.189Z,52.60
2023-03-04T23:28:39.196Z,50.67
2023-03-04T23:31:44.508Z,43.72
2023-03-04T23:34:46.863Z,48.72
2023-03-04T23:37:50.150Z,49.75
2023-03-04T23:40:52.230Z,45.92
2023-03-04T23:43:55.910Z,59.67
2023-03-04T23:46:58.235Z,57.35
2023-03-04T23:50:00.714Z,60.95
2023-03-04T23:53:03.099Z,50.63
2023-03-04T23:56:12.990Z,57.45
2023-03-04T23:59:15.049Z,49.70
